Time;durP1;ratioP1;P1;durP2;ratioP2;P2;SDS_P1;SDS_P2;PMS_P1;PMS_P2;Temp;Humidity;BMP_temperature;BMP_pressure;BME280_temperature;BME280_humidity;BME280_pressure;Samples;Min_cycle;Max_cycle;Signal;HPM_P1;HPM_P2
2023/09/12 00:00:18;;;;;;;14.93;9.63;;;;;;;;;;4917558;29;20119;-87
2023/09/12 00:02:43;;;;;;;21.58;10.40;;;;;;;;;;4935547;29;20395;-84
2023/09/12 00:05:09;;;;;;;20.17;13.80;;;;;;;;;;4914093;29;20039;-87
2023/09/12 00:07:36;;;;;;;14.02;10.13;;;;;;;;;;4914084;29;20035;-80
2023/09/12 00:10:02;;;;;;;15.38;10.10;;;;;;;;;;4912795;29;20090;-82
2023/09/12 00:12:27;;;;;;;13.85;10.50;;;;;;;;;;4918735;29;20065;-81
2023/09/12 00:14:54;;;;;;;15.77;10.93;;;;;;;;;;4921916;29;20483;-81
2023/09/12 00:17:19;;;;;;;14.15;11.25;;;;;;;;;;4916089;29;20033;-81
2023/09/12 00:19:44;;;;;;;12.98;10.60;;;;;;;;;;4934933;29;20108;-81
2023/09/12 00:22:10;;;;;;;16.38;11.68;;;;;;;;;;4936075;29;20063;-80
2023/09/12 00:24:35;;;;;;;16.25;10.57;;;;;;;;;;4920681;29;20035;-80
2023/09/12 00:27:00;;;;;;;15.10;11.05;;;;;;;;;;4934711;29;20055;-80
2023/09/12 00:29:26;;;;;;;15.38;11.57;;;;;;;;;;4913796;29;20024;-81
2023/09/12 00:31:51;;;;;;;16.40;11.68;;;;;;;;;;4918408;29;20103;-81
2023/09/12 00:34:17;;;;;;;15.63;11.75;;;;;;;;;;4926105;29;20032;-81
2023/09/12 00:36:43;;;;;;;15.45;11.60;;;;;;;;;;4909830;29;20248;-81
2023/09/12 00:39:09;;;;;;;15.55;11.52;;;;;;;;;;4930806;29;20424;-81
2023/09/12 00:41:34;;;;;;;14.07;10.70;;;;;;;;;;4918080;29;20551;-81
2023/09/12 00:43:59;;;;;;;15.95;11.60;;;;;;;;;;4909774;29;20122;-81
2023/09/12 00:46:26;;;;;;;15.55;11.50;;;;;;;;;;4916433;29;20028;-86
2023/09/12 00:48:53;;;;;;;13.65;10.70;;;;;;;;;;4911597;29;20444;-86
2023/09/12 00:51:20;;;;;;;14.98;11.65;;;;;;;;;;4917232;29;20488;-87
2023/09/12 00:53:47;;;;;;;13.27;10.35;;;;;;;;;;4931478;29;20428;-87
2023/09/12 00:56:13;;;;;;;14.95;11.30;;;;;;;;;;4917694;29;20024;-87
2023/09/12 00:58:38;;;;;;;14.05;10.95;;;;;;;;;;4918419;29;20019;-88
2023/09/12 01:01:04;;;;;;;13.32;10.32;;;;;;;;;;4913515;29;20047;-87
2023/09/12 01:03:30;;;;;;;17.17;11.27;;;;;;;;;;4916599;29;20020;-87
2023/09/12 01:05:57;;;;;;;15.02;11.07;;;;;;;;;;4919765;29;20039;-87
2023/09/12 01:08:22;;;;;;;15.38;11.05;;;;;;;;;;4935290;29;20027;-87
2023/09/12 01:10:49;;;;;;;14.32;11.07;;;;;;;;;;4913104;29;20035;-87
2023/09/12 01:13:15;;;;;;;14.85;10.15;;;;;;;;;;4931377;29;20039;-87
2023/09/12 01:15:41;;;;;;;13.52;10.05;;;;;;;;;;4919028;29;20488;-87
2023/09/12 01:18:07;;;;;;;13.00;10.02;;;;;;;;;;4915851;29;20031;-87
2023/09/12 01:20:34;;;;;;;14.57;10.38;;;;;;;;;;4919517;29;20019;-87
2023/09/12 01:23:18;;;;;;;13.88;10.10;;;;;;;;;;4914963;29;20174;-86
2023/09/12 01:26:07;;;;;;;15.25;9.88;;;;;;;;;;4930881;29;20030;-87
2023/09/12 01:28:34;;;;;;;15.23;10.45;;;;;;;;;;4919017;29;20550;-87
2023/09/12 01:31:02;;;;;;;13.23;10.18;;;;;;;;;;4912417;29;20547;-86
2023/09/12 01:33:28;;;;;;;14.65;10.25;;;;;;;;;;4920953;29;20050;-87
2023/09/12 01:35:54;;;;;;;16.63;12.50;;;;;;;;;;4910552;29;20493;-86
2023/09/12 01:38:20;;;;;;;13.85;10.40;;;;;;;;;;4931764;29;20020;-87
2023/09/12 01:40:54;;;;;;;14.50;11.32;;;;;;;;;;4918379;29;20039;-87
2023/09/12 01:43:23;;;;;;;12.57;9.68;;;;;;;;;;4916144;29;20023;-87
2023/09/12 01:45:52;;;;;;;10.93;8.38;;;;;;;;;;4929035;29;20132;-86
2023/09/12 01:48:22;;;;;;;12.25;9.57;;;;;;;;;;4914135;29;20122;-87
2023/09/12 01:50:48;;;;;;;14.60;9.32;;;;;;;;;;4910906;29;20062;-88
2023/09/12 01:53:14;;;;;;;11.90;8.77;;;;;;;;;;4908517;29;20036;-86
2023/09/12 01:55:42;;;;;;;10.40;7.68;;;;;;;;;;4917844;29;20039;-82
2023/09/12 01:58:08;;;;;;;7.72;6.30;;;;;;;;;;4917994;29;20032;-82
2023/09/12 02:00:33;;;;;;;7.90;5.78;;;;;;;;;;4917519;29;20031;-82
2023/09/12 02:02:58;;;;;;;9.27;6.32;;;;;;;;;;4922591;29;20031;-82
2023/09/12 02:05:24;;;;;;;6.93;5.30;;;;;;;;;;4919369;29;20039;-82
2023/09/12 02:07:49;;;;;;;7.78;4.90;;;;;;;;;;4919650;29;20404;-82
2023/09/12 02:10:15;;;;;;;7.80;5.35;;;;;;;;;;4920114;29;20028;-82
2023/09/12 02:12:40;;;;;;;7.72;5.68;;;;;;;;;;4921221;29;20582;-82
2023/09/12 02:15:06;;;;;;;6.95;5.20;;;;;;;;;;4923955;29;20038;-82
2023/09/12 02:17:32;;;;;;;6.88;5.82;;;;;;;;;;4917382;29;20052;-82
2023/09/12 02:19:57;;;;;;;5.72;4.57;;;;;;;;;;4916542;29;20059;-83
2023/09/12 02:22:23;;;;;;;8.90;6.90;;;;;;;;;;4933955;29;20114;-82
2023/09/12 02:24:49;;;;;;;8.38;6.47;;;;;;;;;;4937088;29;20059;-82
2023/09/12 02:27:14;;;;;;;8.73;6.50;;;;;;;;;;4915941;29;20035;-88
2023/09/12 02:29:41;;;;;;;8.40;5.72;;;;;;;;;;4938973;29;20031;-86
2023/09/12 02:32:06;;;;;;;7.40;5.47;;;;;;;;;;4935583;29;20039;-88
2023/09/12 02:34:32;;;;;;;6.95;5.35;;;;;;;;;;4917705;29;20645;-87
2023/09/12 02:36:57;;;;;;;6.80;5.43;;;;;;;;;;4919209;29;20031;-88
2023/09/12 02:39:23;;;;;;;7.85;5.72;;;;;;;;;;4916972;29;20028;-87
2023/09/12 02:41:48;;;;;;;8.75;6.57;;;;;;;;;;4932866;29;20036;-88
2023/09/12 02:44:14;;;;;;;8.55;6.70;;;;;;;;;;4936939;29;20041;-88
2023/09/12 02:46:39;;;;;;;7.30;6.03;;;;;;;;;;4934447;29;20034;-88
2023/09/12 02:49:05;;;;;;;8.40;6.70;;;;;;;;;;4931797;29;20064;-83
2023/09/12 02:51:31;;;;;;;10.77;7.95;;;;;;;;;;4915604;29;20031;-81
2023/09/12 02:53:56;;;;;;;9.23;6.40;;;;;;;;;;4915381;29;20106;-80
2023/09/12 02:56:21;;;;;;;9.05;6.70;;;;;;;;;;4919185;29;20131;-80
2023/09/12 02:58:47;;;;;;;10.65;7.35;;;;;;;;;;4934219;29;20055;-81
2023/09/12 03:01:19;;;;;;;9.75;7.20;;;;;;;;;;4931072;29;20032;-81
2023/09/12 03:03:49;;;;;;;11.10;7.40;;;;;;;;;;4928493;29;20024;-81
2023/09/12 03:06:15;;;;;;;11.27;7.25;;;;;;;;;;4917381;29;20039;-82
2023/09/12 03:08:41;;;;;;;10.13;7.13;;;;;;;;;;4915632;29;20092;-83
2023/09/12 03:11:07;;;;;;;9.57;7.05;;;;;;;;;;4931912;29;20032;-82
2023/09/12 03:13:33;;;;;;;10.13;7.72;;;;;;;;;;4917536;29;20094;-82
2023/09/12 03:15:59;;;;;;;10.48;7.47;;;;;;;;;;4913328;29;20027;-82
2023/09/12 03:18:25;;;;;;;10.18;7.72;;;;;;;;;;4930774;29;20031;-82
2023/09/12 03:20:50;;;;;;;13.20;8.63;;;;;;;;;;4919447;29;20102;-82
2023/09/12 03:23:15;;;;;;;11.75;8.65;;;;;;;;;;4916076;29;20369;-82
2023/09/12 03:25:41;;;;;;;12.30;9.05;;;;;;;;;;4926648;29;20023;-82
2023/09/12 03:28:07;;;;;;;11.90;8.88;;;;;;;;;;4917319;29;20034;-82
2023/09/12 03:30:33;;;;;;;12.90;9.38;;;;;;;;;;4921462;29;20036;-82
2023/09/12 03:32:59;;;;;;;12.35;9.35;;;;;;;;;;4917477;29;20040;-82
2023/09/12 03:35:25;;;;;;;15.00;9.95;;;;;;;;;;4916415;29;20075;-82
2023/09/12 03:37:50;;;;;;;13.43;10.02;;;;;;;;;;4911458;29;20024;-82
2023/09/12 03:40:15;;;;;;;12.52;9.63;;;;;;;;;;4933952;29;20043;-82
2023/09/12 03:42:41;;;;;;;13.27;9.80;;;;;;;;;;4921463;29;20032;-82
2023/09/12 03:45:06;;;;;;;12.93;9.57;;;;;;;;;;4916170;29;20415;-82
2023/09/12 03:47:32;;;;;;;13.32;9.10;;;;;;;;;;4923874;29;20095;-82
2023/09/12 03:49:57;;;;;;;14.20;9.95;;;;;;;;;;4935243;29;20082;-83
2023/09/12 03:52:23;;;;;;;12.98;10.10;;;;;;;;;;4916841;29;20043;-82
2023/09/12 03:54:48;;;;;;;15.23;10.57;;;;;;;;;;4914414;29;20030;-82
2023/09/12 03:57:13;;;;;;;13.23;10.07;;;;;;;;;;4934342;29;20488;-82
2023/09/12 03:59:38;;;;;;;12.95;10.15;;;;;;;;;;4918015;29;20019;-82
2023/09/12 04:02:04;;;;;;;13.20;10.25;;;;;;;;;;4919792;29;20026;-82
2023/09/12 04:04:29;;;;;;;12.80;10.57;;;;;;;;;;4917258;29;20031;-82
2023/09/12 04:06:54;;;;;;;12.63;10.40;;;;;;;;;;4928556;29;20088;-82
2023/09/12 04:09:20;;;;;;;14.25;11.55;;;;;;;;;;4926526;29;20396;-82
2023/09/12 04:11:46;;;;;;;13.98;11.60;;;;;;;;;;4929226;29;20035;-82
2023/09/12 04:14:11;;;;;;;13.13;10.25;;;;;;;;;;4931804;29;20106;-82
2023/09/12 04:16:37;;;;;;;12.75;10.20;;;;;;;;;;4915309;29;20028;-89
2023/09/12 04:19:03;;;;;;;10.80;8.80;;;;;;;;;;4916382;29;20038;-89
2023/09/12 04:21:28;;;;;;;9.75;7.75;;;;;;;;;;4916526;29;20574;-86
2023/09/12 04:23:54;;;;;;;12.25;8.40;;;;;;;;;;4913942;29;20086;-88
2023/09/12 04:26:19;;;;;;;12.32;8.90;;;;;;;;;;4917409;29;20111;-89
2023/09/12 04:28:46;;;;;;;12.05;8.88;;;;;;;;;;4913084;29;20034;-89
2023/09/12 04:31:12;;;;;;;11.13;8.55;;;;;;;;;;4927061;29;20119;-88
2023/09/12 04:33:37;;;;;;;14.27;9.63;;;;;;;;;;4912315;29;20450;-88
2023/09/12 04:36:03;;;;;;;12.88;8.80;;;;;;;;;;4910023;29;20039;-89
2023/09/12 04:38:28;;;;;;;11.15;8.20;;;;;;;;;;4914462;29;20095;-89
2023/09/12 04:41:02;;;;;;;10.30;7.70;;;;;;;;;;4912637;29;20028;-88
2023/09/12 04:43:31;;;;;;;10.82;7.18;;;;;;;;;;4913218;29;20023;-86
2023/09/12 04:45:58;;;;;;;11.43;8.35;;;;;;;;;;4911498;29;20030;-83
2023/09/12 04:48:23;;;;;;;10.77;8.60;;;;;;;;;;4932542;29;20032;-83
2023/09/12 04:50:49;;;;;;;9.00;7.47;;;;;;;;;;4932402;29;20071;-82
2023/09/12 04:53:14;;;;;;;9.18;7.85;;;;;;;;;;4914402;29;20118;-83
2023/09/12 04:55:40;;;;;;;7.50;6.47;;;;;;;;;;4935384;29;20031;-83
2023/09/12 04:58:06;;;;;;;6.63;5.00;;;;;;;;;;4933864;29;20032;-83
2023/09/12 05:00:32;;;;;;;6.38;5.03;;;;;;;;;;4914281;29;20050;-83
2023/09/12 05:02:57;;;;;;;6.40;5.18;;;;;;;;;;4916451;29;20035;-83
2023/09/12 05:05:22;;;;;;;9.05;6.85;;;;;;;;;;4916720;29;20062;-83
2023/09/12 05:07:48;;;;;;;6.95;5.03;;;;;;;;;;4916448;29;20513;-84
2023/09/12 05:10:13;;;;;;;6.25;5.07;;;;;;;;;;4915209;29;20032;-84
2023/09/12 05:12:39;;;;;;;6.60;4.70;;;;;;;;;;4913168;29;20139;-84
2023/09/12 05:15:04;;;;;;;6.43;4.70;;;;;;;;;;4915990;29;20032;-84
2023/09/12 05:17:30;;;;;;;6.78;5.30;;;;;;;;;;4934128;29;20053;-84
2023/09/12 05:19:55;;;;;;;6.30;4.90;;;;;;;;;;4921358;29;20409;-84
2023/09/12 05:22:21;;;;;;;7.68;5.40;;;;;;;;;;4931818;29;20065;-84
2023/09/12 05:24:46;;;;;;;7.50;5.75;;;;;;;;;;4932621;29;20056;-84
2023/09/12 05:27:11;;;;;;;10.48;6.40;;;;;;;;;;4914735;29;20040;-85
2023/09/12 05:29:37;;;;;;;7.82;6.07;;;;;;;;;;4917850;29;20032;-84
2023/09/12 05:32:03;;;;;;;8.35;6.03;;;;;;;;;;4917155;29;20028;-84
2023/09/12 05:34:29;;;;;;;9.57;6.97;;;;;;;;;;4931541;29;20035;-85
2023/09/12 05:36:54;;;;;;;10.95;6.80;;;;;;;;;;4917620;29;20502;-85
2023/09/12 05:39:20;;;;;;;9.00;6.88;;;;;;;;;;4915852;29;20428;-85
2023/09/12 05:41:45;;;;;;;9.77;6.43;;;;;;;;;;4917617;29;20035;-85
2023/09/12 05:44:12;;;;;;;12.27;7.32;;;;;;;;;;4922955;29;20038;-84
2023/09/12 05:46:38;;;;;;;8.88;6.93;;;;;;;;;;4943886;29;20059;-85
2023/09/12 05:49:03;;;;;;;9.30;6.57;;;;;;;;;;4916426;29;20090;-84
2023/09/12 05:51:30;;;;;;;10.13;7.10;;;;;;;;;;4932254;29;20388;-84
2023/09/12 05:53:55;;;;;;;10.20;7.60;;;;;;;;;;4917107;29;20476;-84
2023/09/12 05:56:20;;;;;;;12.73;7.93;;;;;;;;;;4929327;29;20102;-84
2023/09/12 05:58:46;;;;;;;11.40;7.07;;;;;;;;;;4930730;29;20111;-84
2023/09/12 06:01:12;;;;;;;12.45;7.82;;;;;;;;;;4928938;29;20038;-84
2023/09/12 06:03:37;;;;;;;11.52;7.72;;;;;;;;;;4912351;29;20513;-84
2023/09/12 06:06:03;;;;;;;10.13;7.07;;;;;;;;;;4914880;29;20122;-83
2023/09/12 06:08:28;;;;;;;12.40;8.60;;;;;;;;;;4914376;29;20040;-83
2023/09/12 06:10:55;;;;;;;11.40;8.10;;;;;;;;;;4935597;29;20140;-83
2023/09/12 06:13:20;;;;;;;12.52;8.50;;;;;;;;;;4927913;29;20725;-83
2023/09/12 06:15:46;;;;;;;12.00;8.57;;;;;;;;;;4934516;29;20062;-84
2023/09/12 06:18:11;;;;;;;13.00;9.20;;;;;;;;;;4918308;29;20086;-83
2023/09/12 06:20:36;;;;;;;15.23;10.77;;;;;;;;;;4931459;29;20365;-83
2023/09/12 06:23:03;;;;;;;15.77;10.65;;;;;;;;;;4911508;29;20099;-83
2023/09/12 06:25:29;;;;;;;17.33;12.00;;;;;;;;;;4915997;29;20027;-83
2023/09/12 06:27:54;;;;;;;13.40;10.00;;;;;;;;;;4924224;29;20035;-83
2023/09/12 06:30:20;;;;;;;17.63;9.07;;;;;;;;;;4928832;29;20648;-83
2023/09/12 06:32:45;;;;;;;14.05;9.50;;;;;;;;;;4915211;29;20473;-83
2023/09/12 06:35:10;;;;;;;14.73;10.20;;;;;;;;;;4913655;29;20106;-83
2023/09/12 06:37:38;;;;;;;17.02;10.88;;;;;;;;;;4931214;29;20041;-83
2023/09/12 06:40:07;;;;;;;16.13;10.85;;;;;;;;;;4916110;29;20148;-83
2023/09/12 06:42:33;;;;;;;16.85;11.68;;;;;;;;;;4932487;29;20082;-83
2023/09/12 06:44:58;;;;;;;15.23;10.77;;;;;;;;;;4935542;29;20484;-83
2023/09/12 06:47:23;;;;;;;17.23;12.27;;;;;;;;;;4920185;29;20036;-83
2023/09/12 06:49:52;;;;;;;17.90;12.82;;;;;;;;;;4937691;29;20433;-83
2023/09/12 06:52:17;;;;;;;16.25;12.63;;;;;;;;;;4936679;29;20028;-83
2023/09/12 06:54:42;;;;;;;16.50;11.98;;;;;;;;;;4936108;29;20028;-83
2023/09/12 06:57:08;;;;;;;21.33;13.95;;;;;;;;;;4915368;29;20028;-81
2023/09/12 06:59:33;;;;;;;19.23;13.18;;;;;;;;;;4918581;29;20106;-81
2023/09/12 07:01:59;;;;;;;17.08;12.13;;;;;;;;;;4920416;29;20036;-80
2023/09/12 07:04:25;;;;;;;14.77;10.07;;;;;;;;;;4925514;29;20134;-80
2023/09/12 07:06:51;;;;;;;15.18;11.00;;;;;;;;;;4923097;29;20122;-80
2023/09/12 07:09:16;;;;;;;17.45;10.82;;;;;;;;;;4921653;29;20153;-80
2023/09/12 07:11:42;;;;;;;14.52;10.30;;;;;;;;;;4919780;29;20023;-81
2023/09/12 07:14:11;;;;;;;15.20;10.00;;;;;;;;;;4914425;29;20027;-81
2023/09/12 07:16:37;;;;;;;13.00;9.50;;;;;;;;;;4929544;29;20083;-81
2023/09/12 07:19:03;;;;;;;13.68;9.40;;;;;;;;;;4909454;29;20027;-81
2023/09/12 07:21:29;;;;;;;14.77;10.00;;;;;;;;;;4911955;29;20036;-83
2023/09/12 07:23:55;;;;;;;15.30;9.85;;;;;;;;;;4916353;29;20039;-81
2023/09/12 07:26:20;;;;;;;13.73;9.73;;;;;;;;;;4916844;29;20032;-81
2023/09/12 07:28:46;;;;;;;14.23;9.52;;;;;;;;;;4912557;29;20110;-83
2023/09/12 07:31:11;;;;;;;14.90;9.80;;;;;;;;;;4931291;29;20030;-82
2023/09/12 07:33:39;;;;;;;15.88;9.55;;;;;;;;;;4919322;29;20031;-81
2023/09/12 07:36:04;;;;;;;17.20;10.55;;;;;;;;;;4914931;29;20091;-81
2023/09/12 07:38:30;;;;;;;16.30;11.13;;;;;;;;;;4918708;29;20416;-81
2023/09/12 07:40:57;;;;;;;15.82;10.77;;;;;;;;;;4917140;29;20027;-81
2023/09/12 07:43:22;;;;;;;16.55;11.23;;;;;;;;;;4929777;29;20032;-81
2023/09/12 07:45:49;;;;;;;16.70;11.95;;;;;;;;;;4915503;29;20047;-85
2023/09/12 07:48:15;;;;;;;18.95;11.82;;;;;;;;;;4908454;29;20036;-86
2023/09/12 07:50:41;;;;;;;18.55;12.00;;;;;;;;;;4926820;29;20403;-86
2023/09/12 07:53:06;;;;;;;17.23;11.43;;;;;;;;;;4915952;29;20027;-83
2023/09/12 07:55:45;;;;;;;16.08;10.40;;;;;;;;;;4912766;29;20312;-86
2023/09/12 07:58:18;;;;;;;20.30;12.57;;;;;;;;;;4912308;29;20059;-85
2023/09/12 08:00:44;;;;;;;25.67;15.95;;;;;;;;;;4912409;29;20039;-86
2023/09/12 08:03:09;;;;;;;22.10;14.68;;;;;;;;;;4915247;29;20031;-85
2023/09/12 08:05:35;;;;;;;23.02;15.10;;;;;;;;;;4919562;29;20050;-84
2023/09/12 08:08:00;;;;;;;27.13;16.40;;;;;;;;;;4934601;29;20072;-85
2023/09/12 08:10:26;;;;;;;28.98;16.23;;;;;;;;;;4907227;29;20036;-86
2023/09/12 08:12:51;;;;;;;26.25;15.63;;;;;;;;;;4912364;29;20046;-83
2023/09/12 08:15:17;;;;;;;24.77;15.80;;;;;;;;;;4929771;29;20515;-87
2023/09/12 08:17:43;;;;;;;27.45;16.77;;;;;;;;;;4929249;29;20456;-87
2023/09/12 08:20:11;;;;;;;30.33;17.38;;;;;;;;;;4925847;29;20031;-86
2023/09/12 08:22:37;;;;;;;27.00;18.00;;;;;;;;;;4932166;29;20027;-86
2023/09/12 08:25:07;;;;;;;31.55;18.33;;;;;;;;;;4930611;29;20066;-86
2023/09/12 08:27:32;;;;;;;31.60;18.10;;;;;;;;;;4915824;29;20027;-86
2023/09/12 08:29:58;;;;;;;28.35;18.15;;;;;;;;;;4916111;29;20046;-87
2023/09/12 08:32:23;;;;;;;30.90;18.52;;;;;;;;;;4913375;29;20384;-86
2023/09/12 08:34:48;;;;;;;29.33;18.58;;;;;;;;;;4918812;29;20038;-89
2023/09/12 08:37:14;;;;;;;28.63;18.70;;;;;;;;;;4916578;29;20040;-85
2023/09/12 08:39:44;;;;;;;32.55;19.45;;;;;;;;;;4919954;29;20028;-88
2023/09/12 08:42:16;;;;;;;31.35;19.80;;;;;;;;;;4920333;29;20028;-87
2023/09/12 08:44:42;;;;;;;29.73;18.08;;;;;;;;;;4919072;29;20034;-87
2023/09/12 08:47:12;;;;;;;30.70;18.80;;;;;;;;;;4936019;29;20041;-87
2023/09/12 08:49:37;;;;;;;27.77;17.50;;;;;;;;;;4924797;29;20035;-87
2023/09/12 08:52:04;;;;;;;30.35;18.35;;;;;;;;;;4919272;29;20039;-87
2023/09/12 08:54:31;;;;;;;29.13;17.27;;;;;;;;;;4921301;29;20404;-82
2023/09/12 08:56:56;;;;;;;30.73;17.58;;;;;;;;;;4922869;29;20027;-88
2023/09/12 08:59:22;;;;;;;29.13;17.45;;;;;;;;;;4935256;29;20358;-88
2023/09/12 09:01:50;;;;;;;28.65;17.13;;;;;;;;;;4918656;29;20385;-88
2023/09/12 09:04:18;;;;;;;27.10;16.48;;;;;;;;;;4918661;29;20035;-88
2023/09/12 09:06:46;;;;;;;32.28;18.25;;;;;;;;;;4917208;29;20026;-88
2023/09/12 09:09:12;;;;;;;31.80;17.95;;;;;;;;;;4915757;29;20028;-88
2023/09/12 09:11:37;;;;;;;28.73;17.00;;;;;;;;;;4935172;29;20075;-88
2023/09/12 09:14:03;;;;;;;26.33;16.83;;;;;;;;;;4914511;29;20099;-87
2023/09/12 09:16:28;;;;;;;27.15;16.58;;;;;;;;;;4918041;29;20035;-87
2023/09/12 09:18:57;;;;;;;28.70;17.20;;;;;;;;;;4921255;29;20183;-88
2023/09/12 09:21:30;;;;;;;29.92;17.98;;;;;;;;;;4919682;29;20020;-87
2023/09/12 09:23:56;;;;;;;29.10;17.08;;;;;;;;;;4919132;29;20027;-89
2023/09/12 09:26:21;;;;;;;27.60;16.60;;;;;;;;;;4918414;29;20040;-88
2023/09/12 09:29:17;;;;;;;28.52;17.23;;;;;;;;;;4935393;29;20106;-88
2023/09/12 09:31:45;;;;;;;30.08;17.20;;;;;;;;;;4908909;29;20066;-85
2023/09/12 09:34:15;;;;;;;27.42;15.98;;;;;;;;;;4920355;29;20031;-88
2023/09/12 09:36:46;;;;;;;30.63;17.73;;;;;;;;;;4930618;29;20103;-84
2023/09/12 09:39:13;;;;;;;29.25;17.65;;;;;;;;;;4929870;29;20069;-88
2023/09/12 09:41:38;;;;;;;29.80;17.00;;;;;;;;;;4917986;29;20028;-88
2023/09/12 09:44:08;;;;;;;27.65;16.17;;;;;;;;;;4916400;29;20502;-88
2023/09/12 09:46:34;;;;;;;26.00;15.57;;;;;;;;;;4918652;29;20027;-90
2023/09/12 09:49:00;;;;;;;26.80;15.73;;;;;;;;;;4918710;29;20024;-89
2023/09/12 09:51:26;;;;;;;24.38;15.15;;;;;;;;;;4931005;29;20051;-89
2023/09/12 09:53:52;;;;;;;27.67;16.60;;;;;;;;;;4915819;29;20028;-87
2023/09/12 09:56:17;;;;;;;27.88;15.93;;;;;;;;;;4918216;29;20031;-89
2023/09/12 09:58:52;;;;;;;23.73;14.23;;;;;;;;;;4935598;29;20082;-89
2023/09/12 10:01:20;;;;;;;22.67;14.10;;;;;;;;;;4934288;29;20028;-89
2023/09/12 10:03:50;;;;;;;25.58;13.55;;;;;;;;;;4918793;29;20074;-89
2023/09/12 10:06:17;;;;;;;20.40;12.35;;;;;;;;;;4918622;29;20114;-89
2023/09/12 10:08:50;;;;;;;26.33;15.32;;;;;;;;;;4935310;29;20028;-89
2023/09/12 10:11:16;;;;;;;21.42;13.18;;;;;;;;;;4917229;29;20503;-89
2023/09/12 10:14:03;;;;;;;21.58;12.95;;;;;;;;;;4922160;29;20055;-90
2023/09/12 10:16:34;;;;;;;26.42;14.43;;;;;;;;;;4930547;29;20396;-87
2023/09/12 10:19:18;;;;;;;24.02;14.48;;;;;;;;;;4925638;29;20031;-85
2023/09/12 10:21:48;;;;;;;20.83;13.07;;;;;;;;;;4936206;29;20406;-86
2023/09/12 10:24:15;;;;;;;21.55;12.25;;;;;;;;;;4938636;29;20028;-87
2023/09/12 10:26:44;;;;;;;21.33;12.85;;;;;;;;;;4926881;29;20023;-86
2023/09/12 10:29:15;;;;;;;20.15;12.05;;;;;;;;;;4921823;29;20038;-86
2023/09/12 10:31:40;;;;;;;19.95;10.95;;;;;;;;;;4939527;29;20028;-86
2023/09/12 10:34:09;;;;;;;141.57;29.75;;;;;;;;;;4921296;29;20055;-87
2023/09/12 10:36:38;;;;;;;79.88;21.63;;;;;;;;;;4922586;29;20119;-87
2023/09/12 10:39:05;;;;;;;18.30;10.50;;;;;;;;;;4930787;29;20428;-87
2023/09/12 10:41:30;;;;;;;22.27;11.70;;;;;;;;;;4920843;29;20031;-87
2023/09/12 10:43:57;;;;;;;24.30;14.15;;;;;;;;;;4922347;29;20034;-87
2023/09/12 10:46:23;;;;;;;22.35;13.40;;;;;;;;;;4928353;29;20035;-87
2023/09/12 10:48:50;;;;;;;22.75;13.85;;;;;;;;;;4938858;29;20051;-87
2023/09/12 10:51:17;;;;;;;23.42;13.98;;;;;;;;;;4927395;29;20063;-87
2023/09/12 10:53:48;;;;;;;23.30;13.10;;;;;;;;;;4923386;29;20032;-88
2023/09/12 10:56:19;;;;;;;20.98;12.32;;;;;;;;;;4929551;29;20045;-87
2023/09/12 10:59:12;;;;;;;22.50;12.52;;;;;;;;;;4924677;29;20467;-88
2023/09/12 11:01:45;;;;;;;21.50;12.55;;;;;;;;;;4926613;29;20027;-86
2023/09/12 11:04:19;;;;;;;;;;;;;;;;;;4921619;29;20603;-86
2023/09/12 11:06:48;;;;;;;17.65;10.35;;;;;;;;;;4922051;29;19934;-87
2023/09/12 11:09:14;;;;;;;13.32;7.13;;;;;;;;;;4921433;29;20396;-86
2023/09/12 11:11:43;;;;;;;16.13;9.50;;;;;;;;;;4924742;29;20036;-87
2023/09/12 11:14:09;;;;;;;20.77;12.20;;;;;;;;;;4926442;29;20031;-86
2023/09/12 11:16:35;;;;;;;19.70;11.73;;;;;;;;;;4918632;29;20495;-87
2023/09/12 11:19:18;;;;;;;20.92;11.48;;;;;;;;;;4914149;29;20151;-87
2023/09/12 11:21:49;;;;;;;19.02;10.90;;;;;;;;;;4936194;29;20433;-88
2023/09/12 11:24:16;;;;;;;17.75;9.32;;;;;;;;;;4923536;29;20043;-88
2023/09/12 11:26:59;;;;;;;18.98;10.40;;;;;;;;;;4920940;29;20027;-88
2023/09/12 11:29:36;;;;;;;20.13;10.70;;;;;;;;;;4920735;29;20060;-88
2023/09/12 11:32:03;;;;;;;17.95;11.18;;;;;;;;;;4919745;29;20476;-87
2023/09/12 11:34:35;;;;;;;19.90;11.73;;;;;;;;;;4914857;29;20032;-87
2023/09/12 11:37:03;;;;;;;19.25;11.50;;;;;;;;;;4918740;29;20463;-88
2023/09/12 11:39:30;;;;;;;18.90;9.60;;;;;;;;;;4920804;29;20488;-87
2023/09/12 11:41:59;;;;;;;24.92;13.45;;;;;;;;;;4920332;29;20027;-87
2023/09/12 11:44:26;;;;;;;23.13;12.40;;;;;;;;;;4919098;29;20037;-88
2023/09/12 11:46:52;;;;;;;22.05;12.85;;;;;;;;;;4914818;29;20488;-87
2023/09/12 11:49:18;;;;;;;18.55;9.80;;;;;;;;;;4930419;29;20055;-87
2023/09/12 11:52:02;;;;;;;22.23;12.93;;;;;;;;;;4937031;29;20034;-87
2023/09/12 11:54:31;;;;;;;22.83;12.70;;;;;;;;;;4935003;29;20039;-86
2023/09/12 11:56:59;;;;;;;19.73;10.38;;;;;;;;;;4921389;29;20019;-87
2023/09/12 11:59:27;;;;;;;22.05;11.45;;;;;;;;;;4916981;29;20519;-85
2023/09/12 12:01:59;;;;;;;19.75;10.93;;;;;;;;;;4934722;29;20030;-86
2023/09/12 12:04:25;;;;;;;16.50;8.75;;;;;;;;;;4917683;29;20027;-86
2023/09/12 12:06:56;;;;;;;17.17;10.00;;;;;;;;;;4912724;29;20503;-86
2023/09/12 12:09:22;;;;;;;18.10;11.02;;;;;;;;;;4919582;29;20061;-86
2023/09/12 12:11:47;;;;;;;17.38;9.35;;;;;;;;;;4920624;29;20030;-85
2023/09/12 12:14:15;;;;;;;17.70;9.57;;;;;;;;;;4920630;29;20019;-86
2023/09/12 12:16:43;;;;;;;15.98;8.07;;;;;;;;;;4922947;29;20156;-85
2023/09/12 12:19:12;;;;;;;16.77;10.13;;;;;;;;;;4919272;29;20024;-83
2023/09/12 12:21:40;;;;;;;19.45;10.55;;;;;;;;;;4938928;29;20035;-83
2023/09/12 12:24:09;;;;;;;16.23;10.00;;;;;;;;;;4930190;29;20042;-84
2023/09/12 12:26:46;;;;;;;15.57;8.48;;;;;;;;;;4917064;29;20056;-84
2023/09/12 12:29:13;;;;;;;11.27;6.88;;;;;;;;;;4935503;29;20020;-84
2023/09/12 12:31:44;;;;;;;11.15;6.57;;;;;;;;;;4932604;29;20066;-83
2023/09/12 12:34:10;;;;;;;12.98;7.22;;;;;;;;;;4930562;29;20027;-84
2023/09/12 12:36:42;;;;;;;21.08;11.63;;;;;;;;;;4918849;29;20031;-83
2023/09/12 12:39:11;;;;;;;15.10;8.55;;;;;;;;;;4935368;29;20518;-84
2023/09/12 12:41:37;;;;;;;17.73;10.48;;;;;;;;;;4918620;29;20043;-83
2023/09/12 12:44:04;;;;;;;21.08;10.85;;;;;;;;;;4911880;29;20414;-84
2023/09/12 12:46:30;;;;;;;19.33;10.85;;;;;;;;;;4917370;29;20035;-84
2023/09/12 12:48:56;;;;;;;19.23;10.90;;;;;;;;;;4917592;29;20087;-84
2023/09/12 12:51:25;;;;;;;19.05;11.32;;;;;;;;;;4917907;29;20074;-84
2023/09/12 12:53:55;;;;;;;15.52;8.15;;;;;;;;;;4911805;29;20020;-83
2023/09/12 12:56:27;;;;;;;14.38;6.78;;;;;;;;;;4917075;29;20511;-84
2023/09/12 12:58:58;;;;;;;16.88;9.95;;;;;;;;;;4931923;29;20087;-84
2023/09/12 13:01:24;;;;;;;21.23;10.77;;;;;;;;;;4918902;29;20062;-84
2023/09/12 13:03:50;;;;;;;18.13;9.75;;;;;;;;;;4937669;29;20058;-84
2023/09/12 13:06:17;;;;;;;16.67;9.40;;;;;;;;;;4918904;29;20454;-84
2023/09/12 13:08:46;;;;;;;16.58;9.52;;;;;;;;;;4917421;29;20036;-84
2023/09/12 13:11:13;;;;;;;18.98;10.48;;;;;;;;;;4916391;29;20411;-84
2023/09/12 13:13:40;;;;;;;18.60;9.88;;;;;;;;;;4915721;29;20038;-84
2023/09/12 13:16:09;;;;;;;15.13;9.05;;;;;;;;;;4917045;29;20049;-84
2023/09/12 13:18:35;;;;;;;12.63;7.10;;;;;;;;;;4917805;29;20122;-84
2023/09/12 13:21:00;;;;;;;15.00;8.57;;;;;;;;;;4916510;29;20127;-84
2023/09/12 13:23:27;;;;;;;13.48;8.20;;;;;;;;;;4936642;23;20035;-84
2023/09/12 13:25:52;;;;;;;13.82;8.15;;;;;;;;;;4963149;28;20065;-84
2023/09/12 13:28:18;;;;;;;14.00;8.43;;;;;;;;;;4968310;28;20470;-84
2023/09/12 13:30:44;;;;;;;11.93;7.32;;;;;;;;;;4968886;28;20481;-83
2023/09/12 13:33:10;;;;;;;13.38;7.15;;;;;;;;;;4976543;28;20382;-84
2023/09/12 13:35:36;;;;;;;13.45;7.47;;;;;;;;;;4987863;28;20033;-84
2023/09/12 13:38:03;;;;;;;16.40;8.82;;;;;;;;;;4965711;28;20018;-85
2023/09/12 13:40:29;;;;;;;11.52;7.35;;;;;;;;;;4954592;28;20756;-84
2023/09/12 13:42:54;;;;;;;11.55;6.13;;;;;;;;;;4964322;28;20034;-84
2023/09/12 13:45:19;;;;;;;12.93;7.40;;;;;;;;;;4960894;28;20394;-88
2023/09/12 13:47:45;;;;;;;11.18;6.65;;;;;;;;;;4968779;28;20027;-87
2023/09/12 13:50:16;;;;;;;14.00;7.93;;;;;;;;;;4969133;28;20121;-86
2023/09/12 13:52:42;;;;;;;9.95;6.30;;;;;;;;;;4987723;28;20041;-86
2023/09/12 13:55:13;;;;;;;12.93;7.60;;;;;;;;;;4972511;28;20379;-87
2023/09/12 13:57:38;;;;;;;13.38;7.38;;;;;;;;;;4990551;28;20386;-86
2023/09/12 14:00:04;;;;;;;10.90;6.18;;;;;;;;;;4969221;28;20018;-86
2023/09/12 14:02:30;;;;;;;11.63;6.13;;;;;;;;;;4994355;28;20626;-87
2023/09/12 14:04:56;;;;;;;9.40;5.80;;;;;;;;;;4969802;28;20030;-86
2023/09/12 14:07:22;;;;;;;11.38;6.82;;;;;;;;;;4965575;28;20030;-87
2023/09/12 14:09:52;;;;;;;12.60;6.53;;;;;;;;;;4972254;28;20479;-86
2023/09/12 14:12:17;;;;;;;12.82;6.25;;;;;;;;;;4969497;28;20045;-85
2023/09/12 14:14:44;;;;;;;12.02;6.47;;;;;;;;;;4971886;28;20023;-85
2023/09/12 14:17:09;;;;;;;9.70;5.97;;;;;;;;;;4971303;28;20418;-86
2023/09/12 14:19:35;;;;;;;7.45;5.28;;;;;;;;;;4971920;28;20035;-86
2023/09/12 14:22:00;;;;;;;11.77;6.95;;;;;;;;;;4968165;28;20263;-86
2023/09/12 14:24:26;;;;;;;11.07;5.97;;;;;;;;;;4989460;28;20041;-87